sensor_id;sensor_type;location;lat;lon;timestamp;P1;durP1;ratioP1;P2;durP2;ratioP2
2940;SDS011;1480;51.456;6.670;2023-07-20T00:01:38;2.77;;;1.73;;
2940;SDS011;1480;51.456;6.670;2023-07-20T00:04:06;4.63;;;1.80;;
2940;SDS011;1480;51.456;6.670;2023-07-20T00:06:32;4.33;;;2.33;;
2940;SDS011;1480;51.456;6.670;2023-07-20T00:08:59;3.63;;;2.20;;
2940;SDS011;1480;51.456;6.670;2023-07-20T00:11:26;3.47;;;2.37;;
2940;SDS011;1480;51.456;6.670;2023-07-20T00:13:55;4.50;;;1.90;;
2940;SDS011;1480;51.456;6.670;2023-07-20T00:16:21;4.20;;;1.77;;
2940;SDS011;1480;51.456;6.670;2023-07-20T00:18:48;3.93;;;2.13;;
2940;SDS011;1480;51.456;6.670;2023-07-20T00:21:14;2.30;;;1.40;;
2940;SDS011;1480;51.456;6.670;2023-07-20T00:23:41;3.83;;;1.90;;
2940;SDS011;1480;51.456;6.670;2023-07-20T00:26:08;3.40;;;2.20;;
2940;SDS011;1480;51.456;6.670;2023-07-20T00:28:34;8.30;;;1.80;;
2940;SDS011;1480;51.456;6.670;2023-07-20T00:31:02;3.93;;;2.30;;
2940;SDS011;1480;51.456;6.670;2023-07-20T00:33:29;3.40;;;1.90;;
2940;SDS011;1480;51.456;6.670;2023-07-20T00:35:56;3.03;;;1.77;;
2940;SDS011;1480;51.456;6.670;2023-07-20T00:38:22;2.33;;;1.70;;
2940;SDS011;1480;51.456;6.670;2023-07-20T00:40:49;3.20;;;2.23;;
2940;SDS011;1480;51.456;6.670;2023-07-20T00:43:17;2.00;;;1.33;;
2940;SDS011;1480;51.456;6.670;2023-07-20T00:45:44;5.80;;;1.60;;
2940;SDS011;1480;51.456;6.670;2023-07-20T00:48:12;3.00;;;2.33;;
2940;SDS011;1480;51.456;6.670;2023-07-20T00:50:40;3.47;;;1.63;;
2940;SDS011;1480;51.456;6.670;2023-07-20T00:53:07;2.57;;;1.60;;
2940;SDS011;1480;51.456;6.670;2023-07-20T00:55:34;2.40;;;1.87;;
2940;SDS011;1480;51.456;6.670;2023-07-20T00:58:02;3.40;;;1.80;;
2940;SDS011;1480;51.456;6.670;2023-07-20T01:00:28;4.50;;;2.13;;
2940;SDS011;1480;51.456;6.670;2023-07-20T01:02:56;2.83;;;1.80;;
2940;SDS011;1480;51.456;6.670;2023-07-20T01:05:25;5.43;;;1.90;;
2940;SDS011;1480;51.456;6.670;2023-07-20T01:07:58;5.23;;;2.10;;
2940;SDS011;1480;51.456;6.670;2023-07-20T01:10:29;2.17;;;1.50;;
2940;SDS011;1480;51.456;6.670;2023-07-20T01:12:58;2.60;;;1.80;;
2940;SDS011;1480;51.456;6.670;2023-07-20T01:15:27;2.70;;;1.57;;
2940;SDS011;1480;51.456;6.670;2023-07-20T01:17:54;3.30;;;2.30;;
2940;SDS011;1480;51.456;6.670;2023-07-20T01:20:20;3.93;;;2.00;;
2940;SDS011;1480;51.456;6.670;2023-07-20T01:22:55;3.13;;;2.00;;
2940;SDS011;1480;51.456;6.670;2023-07-20T01:25:53;5.90;;;2.80;;
2940;SDS011;1480;51.456;6.670;2023-07-20T01:28:40;3.50;;;2.27;;
2940;SDS011;1480;51.456;6.670;2023-07-20T01:31:18;3.70;;;1.80;;
2940;SDS011;1480;51.456;6.670;2023-07-20T01:33:48;3.60;;;2.23;;
2940;SDS011;1480;51.456;6.670;2023-07-20T01:36:17;3.37;;;2.30;;
2940;SDS011;1480;51.456;6.670;2023-07-20T01:38:45;3.63;;;2.10;;
2940;SDS011;1480;51.456;6.670;2023-07-20T01:41:11;5.57;;;3.00;;
2940;SDS011;1480;51.456;6.670;2023-07-20T01:43:38;6.10;;;2.83;;
2940;SDS011;1480;51.456;6.670;2023-07-20T01:46:05;4.63;;;3.13;;
2940;SDS011;1480;51.456;6.670;2023-07-20T01:48:33;4.50;;;2.60;;
2940;SDS011;1480;51.456;6.670;2023-07-20T01:51:00;4.00;;;2.80;;
2940;SDS011;1480;51.456;6.670;2023-07-20T01:53:27;4.90;;;2.80;;
2940;SDS011;1480;51.456;6.670;2023-07-20T01:55:54;5.00;;;2.27;;
2940;SDS011;1480;51.456;6.670;2023-07-20T01:58:21;2.80;;;2.03;;
2940;SDS011;1480;51.456;6.670;2023-07-20T02:00:47;4.10;;;3.00;;
2940;SDS011;1480;51.456;6.670;2023-07-20T02:03:14;3.10;;;2.20;;
2940;SDS011;1480;51.456;6.670;2023-07-20T02:05:43;3.40;;;2.37;;
2940;SDS011;1480;51.456;6.670;2023-07-20T02:08:10;3.93;;;2.43;;
2940;SDS011;1480;51.456;6.670;2023-07-20T02:10:36;6.03;;;2.73;;
2940;SDS011;1480;51.456;6.670;2023-07-20T02:13:03;4.57;;;2.80;;
2940;SDS011;1480;51.456;6.670;2023-07-20T02:15:30;4.03;;;2.50;;
2940;SDS011;1480;51.456;6.670;2023-07-20T02:17:57;8.50;;;3.30;;
2940;SDS011;1480;51.456;6.670;2023-07-20T02:20:23;5.40;;;3.07;;
2940;SDS011;1480;51.456;6.670;2023-07-20T02:22:51;3.07;;;2.30;;
2940;SDS011;1480;51.456;6.670;2023-07-20T02:25:18;4.50;;;2.83;;
2940;SDS011;1480;51.456;6.670;2023-07-20T02:27:45;5.93;;;3.33;;
2940;SDS011;1480;51.456;6.670;2023-07-20T02:30:12;8.10;;;3.97;;
2940;SDS011;1480;51.456;6.670;2023-07-20T02:32:38;6.50;;;3.50;;
2940;SDS011;1480;51.456;6.670;2023-07-20T02:35:06;5.67;;;3.40;;
2940;SDS011;1480;51.456;6.670;2023-07-20T02:37:33;6.07;;;2.77;;
2940;SDS011;1480;51.456;6.670;2023-07-20T02:40:01;4.43;;;3.30;;
2940;SDS011;1480;51.456;6.670;2023-07-20T02:42:29;8.57;;;3.43;;
2940;SDS011;1480;51.456;6.670;2023-07-20T02:44:56;5.77;;;3.57;;
2940;SDS011;1480;51.456;6.670;2023-07-20T02:47:23;4.87;;;3.43;;
2940;SDS011;1480;51.456;6.670;2023-07-20T02:49:49;14.00;;;3.90;;
2940;SDS011;1480;51.456;6.670;2023-07-20T02:52:16;4.33;;;3.20;;
2940;SDS011;1480;51.456;6.670;2023-07-20T02:54:43;5.57;;;3.87;;
2940;SDS011;1480;51.456;6.670;2023-07-20T02:57:11;4.83;;;3.57;;
2940;SDS011;1480;51.456;6.670;2023-07-20T02:59:37;5.27;;;3.63;;
2940;SDS011;1480;51.456;6.670;2023-07-20T03:02:04;5.43;;;3.20;;
2940;SDS011;1480;51.456;6.670;2023-07-20T03:04:34;5.40;;;2.97;;
2940;SDS011;1480;51.456;6.670;2023-07-20T03:07:02;5.00;;;2.90;;
2940;SDS011;1480;51.456;6.670;2023-07-20T03:09:30;5.50;;;3.57;;
2940;SDS011;1480;51.456;6.670;2023-07-20T03:11:57;3.87;;;2.50;;
2940;SDS011;1480;51.456;6.670;2023-07-20T03:14:25;6.93;;;2.80;;
2940;SDS011;1480;51.456;6.670;2023-07-20T03:16:52;9.30;;;4.17;;
2940;SDS011;1480;51.456;6.670;2023-07-20T03:19:18;4.50;;;3.33;;
2940;SDS011;1480;51.456;6.670;2023-07-20T03:21:45;5.77;;;3.00;;
2940;SDS011;1480;51.456;6.670;2023-07-20T03:24:11;5.33;;;3.90;;
2940;SDS011;1480;51.456;6.670;2023-07-20T03:26:38;4.60;;;2.83;;
2940;SDS011;1480;51.456;6.670;2023-07-20T03:29:06;5.63;;;3.10;;
2940;SDS011;1480;51.456;6.670;2023-07-20T03:31:35;5.03;;;3.10;;
2940;SDS011;1480;51.456;6.670;2023-07-20T03:34:01;6.67;;;3.70;;
2940;SDS011;1480;51.456;6.670;2023-07-20T03:36:28;4.97;;;3.87;;
2940;SDS011;1480;51.456;6.670;2023-07-20T03:38:56;8.73;;;3.87;;
2940;SDS011;1480;51.456;6.670;2023-07-20T03:41:23;12.37;;;3.93;;
2940;SDS011;1480;51.456;6.670;2023-07-20T03:43:50;3.93;;;3.23;;
2940;SDS011;1480;51.456;6.670;2023-07-20T03:46:16;6.60;;;3.90;;
2940;SDS011;1480;51.456;6.670;2023-07-20T03:48:45;6.03;;;3.77;;
2940;SDS011;1480;51.456;6.670;2023-07-20T03:51:11;9.67;;;5.17;;
2940;SDS011;1480;51.456;6.670;2023-07-20T03:53:38;7.33;;;4.87;;
2940;SDS011;1480;51.456;6.670;2023-07-20T03:56:05;5.13;;;3.60;;
2940;SDS011;1480;51.456;6.670;2023-07-20T03:58:31;7.43;;;4.30;;
2940;SDS011;1480;51.456;6.670;2023-07-20T04:00:58;7.27;;;3.63;;
2940;SDS011;1480;51.456;6.670;2023-07-20T04:03:27;12.30;;;3.43;;
2940;SDS011;1480;51.456;6.670;2023-07-20T04:05:55;7.90;;;3.93;;
2940;SDS011;1480;51.456;6.670;2023-07-20T04:08:22;15.33;;;5.00;;
2940;SDS011;1480;51.456;6.670;2023-07-20T04:10:49;10.13;;;4.83;;
2940;SDS011;1480;51.456;6.670;2023-07-20T04:13:16;6.83;;;4.47;;
2940;SDS011;1480;51.456;6.670;2023-07-20T04:15:43;7.50;;;4.37;;
2940;SDS011;1480;51.456;6.670;2023-07-20T04:18:10;7.77;;;4.83;;
2940;SDS011;1480;51.456;6.670;2023-07-20T04:20:36;8.03;;;4.77;;
2940;SDS011;1480;51.456;6.670;2023-07-20T04:23:04;11.70;;;5.63;;
2940;SDS011;1480;51.456;6.670;2023-07-20T04:25:31;6.20;;;4.37;;
2940;SDS011;1480;51.456;6.670;2023-07-20T04:28:04;8.80;;;4.83;;
2940;SDS011;1480;51.456;6.670;2023-07-20T04:30:34;5.83;;;3.53;;
2940;SDS011;1480;51.456;6.670;2023-07-20T04:33:01;14.17;;;5.50;;
2940;SDS011;1480;51.456;6.670;2023-07-20T04:35:48;9.53;;;5.27;;
2940;SDS011;1480;51.456;6.670;2023-07-20T04:38:20;9.80;;;5.70;;
2940;SDS011;1480;51.456;6.670;2023-07-20T04:40:54;12.77;;;6.20;;
2940;SDS011;1480;51.456;6.670;2023-07-20T04:43:20;7.30;;;5.13;;
2940;SDS011;1480;51.456;6.670;2023-07-20T04:45:47;11.43;;;5.47;;
2940;SDS011;1480;51.456;6.670;2023-07-20T04:48:15;10.87;;;6.20;;
2940;SDS011;1480;51.456;6.670;2023-07-20T04:50:48;6.60;;;4.40;;
2940;SDS011;1480;51.456;6.670;2023-07-20T04:53:15;7.00;;;4.47;;
2940;SDS011;1480;51.456;6.670;2023-07-20T04:55:48;8.60;;;5.53;;
2940;SDS011;1480;51.456;6.670;2023-07-20T04:58:18;10.83;;;5.13;;
2940;SDS011;1480;51.456;6.670;2023-07-20T05:00:44;6.53;;;4.10;;
2940;SDS011;1480;51.456;6.670;2023-07-20T05:03:11;8.00;;;3.90;;
2940;SDS011;1480;51.456;6.670;2023-07-20T05:05:38;6.63;;;4.43;;
2940;SDS011;1480;51.456;6.670;2023-07-20T05:08:05;6.47;;;4.03;;
2940;SDS011;1480;51.456;6.670;2023-07-20T05:10:31;6.13;;;3.77;;
2940;SDS011;1480;51.456;6.670;2023-07-20T05:12:59;8.20;;;4.80;;
2940;SDS011;1480;51.456;6.670;2023-07-20T05:15:26;6.33;;;4.30;;
2940;SDS011;1480;51.456;6.670;2023-07-20T05:17:54;11.50;;;3.80;;
2940;SDS011;1480;51.456;6.670;2023-07-20T05:20:23;7.83;;;5.07;;
2940;SDS011;1480;51.456;6.670;2023-07-20T05:22:50;8.40;;;5.07;;
2940;SDS011;1480;51.456;6.670;2023-07-20T05:25:17;8.37;;;5.27;;
2940;SDS011;1480;51.456;6.670;2023-07-20T05:27:45;9.63;;;4.60;;
2940;SDS011;1480;51.456;6.670;2023-07-20T05:30:13;7.40;;;4.93;;
2940;SDS011;1480;51.456;6.670;2023-07-20T05:32:40;8.00;;;4.43;;
2940;SDS011;1480;51.456;6.670;2023-07-20T05:35:07;11.17;;;6.20;;
2940;SDS011;1480;51.456;6.670;2023-07-20T05:37:36;5.67;;;3.73;;
2940;SDS011;1480;51.456;6.670;2023-07-20T05:40:03;13.20;;;3.93;;
2940;SDS011;1480;51.456;6.670;2023-07-20T05:42:31;6.23;;;3.30;;
2940;SDS011;1480;51.456;6.670;2023-07-20T05:44:58;5.00;;;3.33;;
2940;SDS011;1480;51.456;6.670;2023-07-20T05:47:26;7.90;;;3.63;;
2940;SDS011;1480;51.456;6.670;2023-07-20T05:49:52;12.40;;;3.67;;
2940;SDS011;1480;51.456;6.670;2023-07-20T05:52:19;7.57;;;4.10;;
2940;SDS011;1480;51.456;6.670;2023-07-20T05:54:46;5.83;;;3.07;;
2940;SDS011;1480;51.456;6.670;2023-07-20T05:57:12;6.70;;;2.60;;
2940;SDS011;1480;51.456;6.670;2023-07-20T05:59:39;3.33;;;2.03;;
2940;SDS011;1480;51.456;6.670;2023-07-20T06:02:09;3.43;;;2.40;;
2940;SDS011;1480;51.456;6.670;2023-07-20T06:04:38;5.07;;;2.50;;
2940;SDS011;1480;51.456;6.670;2023-07-20T06:07:05;3.67;;;2.40;;
2940;SDS011;1480;51.456;6.670;2023-07-20T06:09:32;5.53;;;3.27;;
2940;SDS011;1480;51.456;6.670;2023-07-20T06:11:59;9.97;;;2.70;;
2940;SDS011;1480;51.456;6.670;2023-07-20T06:14:25;2.17;;;1.90;;
2940;SDS011;1480;51.456;6.670;2023-07-20T06:16:52;5.53;;;2.40;;
2940;SDS011;1480;51.456;6.670;2023-07-20T06:19:19;2.90;;;2.17;;
2940;SDS011;1480;51.456;6.670;2023-07-20T06:21:49;2.87;;;1.60;;
2940;SDS011;1480;51.456;6.670;2023-07-20T06:24:15;3.33;;;2.17;;
2940;SDS011;1480;51.456;6.670;2023-07-20T06:26:42;4.07;;;2.20;;
2940;SDS011;1480;51.456;6.670;2023-07-20T06:29:09;5.37;;;2.40;;
2940;SDS011;1480;51.456;6.670;2023-07-20T06:31:35;5.00;;;2.23;;
2940;SDS011;1480;51.456;6.670;2023-07-20T06:34:02;4.00;;;1.83;;
2940;SDS011;1480;51.456;6.670;2023-07-20T06:36:29;4.70;;;2.03;;
2940;SDS011;1480;51.456;6.670;2023-07-20T06:38:57;2.70;;;2.00;;
2940;SDS011;1480;51.456;6.670;2023-07-20T06:41:24;1.70;;;1.20;;
2940;SDS011;1480;51.456;6.670;2023-07-20T06:43:50;2.63;;;1.50;;
2940;SDS011;1480;51.456;6.670;2023-07-20T06:46:23;2.10;;;1.20;;
2940;SDS011;1480;51.456;6.670;2023-07-20T06:48:50;1.83;;;1.20;;
2940;SDS011;1480;51.456;6.670;2023-07-20T06:51:16;4.77;;;2.13;;
2940;SDS011;1480;51.456;6.670;2023-07-20T06:53:43;3.37;;;1.70;;
2940;SDS011;1480;51.456;6.670;2023-07-20T06:56:11;2.27;;;1.50;;
2940;SDS011;1480;51.456;6.670;2023-07-20T06:58:37;2.10;;;1.33;;
2940;SDS011;1480;51.456;6.670;2023-07-20T07:01:04;2.77;;;1.93;;
2940;SDS011;1480;51.456;6.670;2023-07-20T07:03:32;3.27;;;1.93;;
2940;SDS011;1480;51.456;6.670;2023-07-20T07:05:59;2.43;;;1.47;;
2940;SDS011;1480;51.456;6.670;2023-07-20T07:08:25;1.90;;;1.60;;
2940;SDS011;1480;51.456;6.670;2023-07-20T07:10:52;2.10;;;1.53;;
2940;SDS011;1480;51.456;6.670;2023-07-20T07:13:20;3.00;;;1.73;;
2940;SDS011;1480;51.456;6.670;2023-07-20T07:15:47;6.90;;;1.63;;
2940;SDS011;1480;51.456;6.670;2023-07-20T07:18:13;2.30;;;1.30;;
2940;SDS011;1480;51.456;6.670;2023-07-20T07:20:40;3.50;;;1.70;;
2940;SDS011;1480;51.456;6.670;2023-07-20T07:23:07;3.60;;;1.97;;
2940;SDS011;1480;51.456;6.670;2023-07-20T07:25:34;3.80;;;1.93;;
2940;SDS011;1480;51.456;6.670;2023-07-20T07:28:00;4.17;;;1.90;;
2940;SDS011;1480;51.456;6.670;2023-07-20T07:30:28;4.13;;;2.07;;
2940;SDS011;1480;51.456;6.670;2023-07-20T07:32:55;4.30;;;2.47;;
2940;SDS011;1480;51.456;6.670;2023-07-20T07:35:22;2.80;;;1.83;;
2940;SDS011;1480;51.456;6.670;2023-07-20T07:37:48;2.90;;;1.73;;
2940;SDS011;1480;51.456;6.670;2023-07-20T07:40:15;2.37;;;1.57;;
2940;SDS011;1480;51.456;6.670;2023-07-20T07:42:42;2.63;;;1.87;;
2940;SDS011;1480;51.456;6.670;2023-07-20T07:45:09;3.40;;;1.93;;
2940;SDS011;1480;51.456;6.670;2023-07-20T07:47:37;2.07;;;1.50;;
2940;SDS011;1480;51.456;6.670;2023-07-20T07:50:04;2.97;;;1.87;;
2940;SDS011;1480;51.456;6.670;2023-07-20T07:52:32;5.03;;;2.57;;
2940;SDS011;1480;51.456;6.670;2023-07-20T07:54:58;5.70;;;2.10;;
2940;SDS011;1480;51.456;6.670;2023-07-20T07:57:25;2.83;;;1.67;;
2940;SDS011;1480;51.456;6.670;2023-07-20T07:59:52;2.00;;;1.27;;
2940;SDS011;1480;51.456;6.670;2023-07-20T08:02:19;3.40;;;1.77;;
2940;SDS011;1480;51.456;6.670;2023-07-20T08:04:47;10.43;;;2.07;;
2940;SDS011;1480;51.456;6.670;2023-07-20T08:07:17;2.30;;;1.70;;
2940;SDS011;1480;51.456;6.670;2023-07-20T08:09:43;8.37;;;2.07;;
2940;SDS011;1480;51.456;6.670;2023-07-20T08:12:10;2.70;;;1.47;;
2940;SDS011;1480;51.456;6.670;2023-07-20T08:14:38;2.37;;;1.50;;
2940;SDS011;1480;51.456;6.670;2023-07-20T08:17:05;2.90;;;1.40;;
2940;SDS011;1480;51.456;6.670;2023-07-20T08:19:31;4.77;;;2.23;;
2940;SDS011;1480;51.456;6.670;2023-07-20T08:21:59;2.90;;;1.53;;
2940;SDS011;1480;51.456;6.670;2023-07-20T08:24:26;3.40;;;1.50;;
2940;SDS011;1480;51.456;6.670;2023-07-20T08:26:53;2.07;;;1.03;;
2940;SDS011;1480;51.456;6.670;2023-07-20T08:29:19;2.30;;;1.03;;
2940;SDS011;1480;51.456;6.670;2023-07-20T08:31:46;1.97;;;0.70;;
2940;SDS011;1480;51.456;6.670;2023-07-20T08:34:13;2.33;;;0.90;;
2940;SDS011;1480;51.456;6.670;2023-07-20T08:36:40;1.40;;;0.80;;
2940;SDS011;1480;51.456;6.670;2023-07-20T08:39:08;1.80;;;0.80;;
2940;SDS011;1480;51.456;6.670;2023-07-20T08:41:35;2.00;;;1.10;;
2940;SDS011;1480;51.456;6.670;2023-07-20T08:44:02;1.73;;;1.00;;
2940;SDS011;1480;51.456;6.670;2023-07-20T08:46:29;1.70;;;0.87;;
2940;SDS011;1480;51.456;6.670;2023-07-20T08:48:56;1.60;;;1.00;;
2940;SDS011;1480;51.456;6.670;2023-07-20T08:51:23;1.70;;;1.13;;
2940;SDS011;1480;51.456;6.670;2023-07-20T08:53:51;1.50;;;1.00;;
2940;SDS011;1480;51.456;6.670;2023-07-20T08:56:19;1.47;;;0.90;;
2940;SDS011;1480;51.456;6.670;2023-07-20T08:58:47;1.50;;;1.00;;
2940;SDS011;1480;51.456;6.670;2023-07-20T09:01:13;2.37;;;0.90;;
2940;SDS011;1480;51.456;6.670;2023-07-20T09:03:40;1.40;;;0.90;;
2940;SDS011;1480;51.456;6.670;2023-07-20T09:06:08;1.40;;;0.80;;
2940;SDS011;1480;51.456;6.670;2023-07-20T09:08:37;2.63;;;0.80;;
2940;SDS011;1480;51.456;6.670;2023-07-20T09:11:04;1.13;;;0.60;;
2940;SDS011;1480;51.456;6.670;2023-07-20T09:13:33;1.40;;;0.90;;
2940;SDS011;1480;51.456;6.670;2023-07-20T09:16:00;1.53;;;1.13;;
2940;SDS011;1480;51.456;6.670;2023-07-20T09:18:29;1.50;;;0.80;;
2940;SDS011;1480;51.456;6.670;2023-07-20T09:20:58;1.97;;;0.80;;
2940;SDS011;1480;51.456;6.670;2023-07-20T09:23:29;1.50;;;0.90;;
2940;SDS011;1480;51.456;6.670;2023-07-20T09:25:57;1.57;;;0.97;;
2940;SDS011;1480;51.456;6.670;2023-07-20T09:28:24;1.80;;;1.00;;
2940;SDS011;1480;51.456;6.670;2023-07-20T09:30:52;2.33;;;0.90;;
2940;SDS011;1480;51.456;6.670;2023-07-20T09:33:21;3.63;;;0.87;;
2940;SDS011;1480;51.456;6.670;2023-07-20T09:35:48;1.37;;;0.97;;
2940;SDS011;1480;51.456;6.670;2023-07-20T09:38:15;1.33;;;1.00;;
2940;SDS011;1480;51.456;6.670;2023-07-20T09:40:42;1.50;;;1.00;;
2940;SDS011;1480;51.456;6.670;2023-07-20T09:43:09;1.50;;;1.00;;
2940;SDS011;1480;51.456;6.670;2023-07-20T09:45:39;3.70;;;1.23;;
2940;SDS011;1480;51.456;6.670;2023-07-20T09:48:08;1.50;;;0.97;;
2940;SDS011;1480;51.456;6.670;2023-07-20T09:50:39;3.30;;;1.07;;
2940;SDS011;1480;51.456;6.670;2023-07-20T09:53:07;1.67;;;0.83;;
2940;SDS011;1480;51.456;6.670;2023-07-20T09:55:34;1.30;;;0.80;;
2940;SDS011;1480;51.456;6.670;2023-07-20T09:58:00;1.60;;;0.90;;
2940;SDS011;1480;51.456;6.670;2023-07-20T10:00:28;1.50;;;0.93;;
2940;SDS011;1480;51.456;6.670;2023-07-20T10:02:55;2.40;;;1.00;;
2940;SDS011;1480;51.456;6.670;2023-07-20T10:05:23;1.33;;;0.80;;
2940;SDS011;1480;51.456;6.670;2023-07-20T10:07:52;1.70;;;0.90;;
2940;SDS011;1480;51.456;6.670;2023-07-20T10:10:18;1.37;;;0.87;;
2940;SDS011;1480;51.456;6.670;2023-07-20T10:12:46;1.50;;;0.90;;
2940;SDS011;1480;51.456;6.670;2023-07-20T10:15:20;1.33;;;0.80;;
2940;SDS011;1480;51.456;6.670;2023-07-20T10:17:53;1.50;;;0.77;;
2940;SDS011;1480;51.456;6.670;2023-07-20T10:20:25;1.73;;;1.00;;
2940;SDS011;1480;51.456;6.670;2023-07-20T10:22:53;1.40;;;0.70;;
2940;SDS011;1480;51.456;6.670;2023-07-20T10:25:21;1.30;;;0.80;;
2940;SDS011;1480;51.456;6.670;2023-07-20T10:27:48;1.30;;;0.80;;
2940;SDS011;1480;51.456;6.670;2023-07-20T10:30:15;1.50;;;0.90;;
2940;SDS011;1480;51.456;6.670;2023-07-20T10:32:43;1.50;;;0.80;;
2940;SDS011;1480;51.456;6.670;2023-07-20T10:35:14;2.17;;;1.00;;
2940;SDS011;1480;51.456;6.670;2023-07-20T10:37:47;1.93;;;0.97;;
2940;SDS011;1480;51.456;6.670;2023-07-20T10:40:24;1.70;;;0.90;;
2940;SDS011;1480;51.456;6.670;2023-07-20T10:42:56;1.30;;;0.70;;
2940;SDS011;1480;51.456;6.670;2023-07-20T10:45:33;1.80;;;0.80;;
2940;SDS011;1480;51.456;6.670;2023-07-20T10:48:03;1.60;;;0.80;;
2940;SDS011;1480;51.456;6.670;2023-07-20T10:50:31;1.43;;;0.83;;
2940;SDS011;1480;51.456;6.670;2023-07-20T10:53:05;1.30;;;0.70;;
2940;SDS011;1480;51.456;6.670;2023-07-20T10:55:36;1.27;;;0.77;;
2940;SDS011;1480;51.456;6.670;2023-07-20T10:58:06;1.73;;;0.87;;
2940;SDS011;1480;51.456;6.670;2023-07-20T11:00:34;2.40;;;1.00;;
2940;SDS011;1480;51.456;6.670;2023-07-20T11:02:59;1.20;;;0.80;;
2940;SDS011;1480;51.456;6.670;2023-07-20T11:05:36;1.30;;;0.70;;
2940;SDS011;1480;51.456;6.670;2023-07-20T11:08:05;1.60;;;0.90;;
2940;SDS011;1480;51.456;6.670;2023-07-20T11:10:35;1.70;;;0.80;;
2940;SDS011;1480;51.456;6.670;2023-07-20T11:13:17;1.30;;;0.70;;
2940;SDS011;1480;51.456;6.670;2023-07-20T11:15:45;1.30;;;0.70;;
2940;SDS011;1480;51.456;6.670;2023-07-20T11:18:13;1.67;;;1.00;;
2940;SDS011;1480;51.456;6.670;2023-07-20T11:20:40;1.33;;;0.80;;
2940;SDS011;1480;51.456;6.670;2023-07-20T11:23:08;1.73;;;0.80;;
2940;SDS011;1480;51.456;6.670;2023-07-20T11:25:39;1.57;;;0.77;;
2940;SDS011;1480;51.456;6.670;2023-07-20T11:28:06;1.30;;;0.70;;
2940;SDS011;1480;51.456;6.670;2023-07-20T11:30:34;1.40;;;0.80;;
2940;SDS011;1480;51.456;6.670;2023-07-20T11:33:01;2.40;;;0.87;;
2940;SDS011;1480;51.456;6.670;2023-07-20T11:35:27;1.20;;;0.70;;
2940;SDS011;1480;51.456;6.670;2023-07-20T11:37:54;1.20;;;0.63;;
2940;SDS011;1480;51.456;6.670;2023-07-20T11:40:23;1.40;;;0.80;;
2940;SDS011;1480;51.456;6.670;2023-07-20T11:42:50;2.40;;;1.00;;
2940;SDS011;1480;51.456;6.670;2023-07-20T11:45:17;1.60;;;0.70;;
2940;SDS011;1480;51.456;6.670;2023-07-20T11:47:45;1.80;;;0.73;;
2940;SDS011;1480;51.456;6.670;2023-07-20T11:50:11;1.30;;;0.63;;
2940;SDS011;1480;51.456;6.670;2023-07-20T11:52:39;1.40;;;0.70;;
2940;SDS011;1480;51.456;6.670;2023-07-20T11:55:06;1.30;;;0.80;;
2940;SDS011;1480;51.456;6.670;2023-07-20T11:57:35;2.27;;;0.70;;
2940;SDS011;1480;51.456;6.670;2023-07-20T12:00:03;1.10;;;0.60;;
2940;SDS011;1480;51.456;6.670;2023-07-20T12:02:36;1.40;;;0.80;;
2940;SDS011;1480;51.456;6.670;2023-07-20T12:05:03;1.93;;;0.93;;
2940;SDS011;1480;51.456;6.670;2023-07-20T12:07:35;1.20;;;0.63;;
2940;SDS011;1480;51.456;6.670;2023-07-20T12:10:05;1.50;;;0.73;;
2940;SDS011;1480;51.456;6.670;2023-07-20T12:12:34;1.60;;;0.80;;
2940;SDS011;1480;51.456;6.670;2023-07-20T12:15:16;1.30;;;0.77;;
2940;SDS011;1480;51.456;6.670;2023-07-20T12:17:44;1.70;;;0.90;;
2940;SDS011;1480;51.456;6.670;2023-07-20T12:20:11;1.33;;;0.80;;
2940;SDS011;1480;51.456;6.670;2023-07-20T12:22:38;1.97;;;0.97;;
2940;SDS011;1480;51.456;6.670;2023-07-20T12:25:06;1.30;;;0.73;;
2940;SDS011;1480;51.456;6.670;2023-07-20T12:27:33;1.33;;;0.80;;
2940;SDS011;1480;51.456;6.670;2023-07-20T12:30:01;1.70;;;0.97;;
2940;SDS011;1480;51.456;6.670;2023-07-20T12:32:29;2.27;;;0.80;;
2940;SDS011;1480;51.456;6.670;2023-07-20T12:34:56;1.83;;;1.00;;
2940;SDS011;1480;51.456;6.670;2023-07-20T12:37:22;1.70;;;1.00;;
2940;SDS011;1480;51.456;6.670;2023-07-20T12:39:49;3.00;;;0.90;;
2940;SDS011;1480;51.456;6.670;2023-07-20T12:42:16;1.60;;;0.80;;
2940;SDS011;1480;51.456;6.670;2023-07-20T12:44:44;1.93;;;0.90;;
2940;SDS011;1480;51.456;6.670;2023-07-20T12:47:11;1.40;;;0.70;;
2940;SDS011;1480;51.456;6.670;2023-07-20T12:49:37;1.40;;;0.80;;
2940;SDS011;1480;51.456;6.670;2023-07-20T12:52:05;1.47;;;0.90;;
2940;SDS011;1480;51.456;6.670;2023-07-20T12:54:32;1.50;;;0.80;;
2940;SDS011;1480;51.456;6.670;2023-07-20T12:56:59;1.60;;;0.80;;
2940;SDS011;1480;51.456;6.670;2023-07-20T12:59:26;1.40;;;0.80;;
2940;SDS011;1480;51.456;6.670;2023-07-20T13:01:54;1.30;;;0.70;;
2940;SDS011;1480;51.456;6.670;2023-07-20T13:04:20;1.30;;;0.80;;
2940;SDS011;1480;51.456;6.670;2023-07-20T13:06:47;1.30;;;0.80;;
2940;SDS011;1480;51.456;6.670;2023-07-20T13:09:14;1.27;;;0.77;;
2940;SDS011;1480;51.456;6.670;2023-07-20T13:11:40;1.40;;;0.80;;
2940;SDS011;1480;51.456;6.670;2023-07-20T13:14:07;1.93;;;0.90;;
2940;SDS011;1480;51.456;6.670;2023-07-20T13:16:34;2.60;;;0.70;;
2940;SDS011;1480;51.456;6.670;2023-07-20T13:19:02;1.60;;;0.73;;
2940;SDS011;1480;51.456;6.670;2023-07-20T13:21:28;1.20;;;0.70;;
2940;SDS011;1480;51.456;6.670;2023-07-20T13:23:55;1.30;;;0.80;;
2940;SDS011;1480;51.456;6.670;2023-07-20T13:26:22;1.20;;;0.60;;
2940;SDS011;1480;51.456;6.670;2023-07-20T13:28:48;1.60;;;0.90;;
2940;SDS011;1480;51.456;6.670;2023-07-20T13:31:15;1.40;;;0.80;;
2940;SDS011;1480;51.456;6.670;2023-07-20T13:33:42;1.40;;;0.80;;
2940;SDS011;1480;51.456;6.670;2023-07-20T13:36:10;1.50;;;0.83;;
2940;SDS011;1480;51.456;6.670;2023-07-20T13:38:37;1.30;;;0.70;;
2940;SDS011;1480;51.456;6.670;2023-07-20T13:41:04;1.37;;;0.90;;
2940;SDS011;1480;51.456;6.670;2023-07-20T13:43:30;1.40;;;0.70;;
2940;SDS011;1480;51.456;6.670;2023-07-20T13:45:57;1.30;;;0.70;;
2940;SDS011;1480;51.456;6.670;2023-07-20T13:48:23;1.50;;;1.00;;
2940;SDS011;1480;51.456;6.670;2023-07-20T13:50:50;1.70;;;0.70;;
2940;SDS011;1480;51.456;6.670;2023-07-20T13:53:19;1.50;;;0.80;;
2940;SDS011;1480;51.456;6.670;2023-07-20T13:55:47;1.40;;;0.77;;
2940;SDS011;1480;51.456;6.670;2023-07-20T13:58:14;1.40;;;0.90;;
2940;SDS011;1480;51.456;6.670;2023-07-20T14:00:40;1.17;;;0.70;;
2940;SDS011;1480;51.456;6.670;2023-07-20T14:03:07;1.70;;;0.90;;
2940;SDS011;1480;51.456;6.670;2023-07-20T14:05:34;1.30;;;0.70;;
2940;SDS011;1480;51.456;6.670;2023-07-20T14:08:01;1.60;;;0.90;;
2940;SDS011;1480;51.456;6.670;2023-07-20T14:10:29;1.40;;;0.80;;
2940;SDS011;1480;51.456;6.670;2023-07-20T14:12:55;1.50;;;0.80;;
2940;SDS011;1480;51.456;6.670;2023-07-20T14:15:22;1.20;;;0.67;;
2940;SDS011;1480;51.456;6.670;2023-07-20T14:17:49;1.93;;;1.33;;
2940;SDS011;1480;51.456;6.670;2023-07-20T14:20:15;1.30;;;0.73;;
2940;SDS011;1480;51.456;6.670;2023-07-20T14:22:42;1.50;;;0.80;;
2940;SDS011;1480;51.456;6.670;2023-07-20T14:25:09;1.60;;;0.90;;
2940;SDS011;1480;51.456;6.670;2023-07-20T14:27:37;1.57;;;0.80;;
2940;SDS011;1480;51.456;6.670;2023-07-20T14:30:04;1.20;;;0.67;;
2940;SDS011;1480;51.456;6.670;2023-07-20T14:32:32;3.40;;;0.90;;
2940;SDS011;1480;51.456;6.670;2023-07-20T14:34:59;1.43;;;0.73;;
2940;SDS011;1480;51.456;6.670;2023-07-20T14:37:25;1.70;;;0.80;;
2940;SDS011;1480;51.456;6.670;2023-07-20T14:39:52;1.73;;;1.00;;
2940;SDS011;1480;51.456;6.670;2023-07-20T14:42:19;2.33;;;0.70;;
2940;SDS011;1480;51.456;6.670;2023-07-20T14:44:47;1.67;;;1.00;;
2940;SDS011;1480;51.456;6.670;2023-07-20T14:47:13;1.40;;;0.70;;
2940;SDS011;1480;51.456;6.670;2023-07-20T14:49:40;1.30;;;0.70;;
2940;SDS011;1480;51.456;6.670;2023-07-20T14:52:07;2.00;;;1.07;;
2940;SDS011;1480;51.456;6.670;2023-07-20T14:54:34;1.83;;;0.97;;
2940;SDS011;1480;51.456;6.670;2023-07-20T14:57:01;1.97;;;0.90;;
2940;SDS011;1480;51.456;6.670;2023-07-20T14:59:27;1.90;;;0.80;;
2940;SDS011;1480;51.456;6.670;2023-07-20T15:01:55;1.43;;;0.80;;
2940;SDS011;1480;51.456;6.670;2023-07-20T15:04:22;1.63;;;0.80;;
2940;SDS011;1480;51.456;6.670;2023-07-20T15:06:49;3.67;;;0.80;;
2940;SDS011;1480;51.456;6.670;2023-07-20T15:09:15;1.50;;;1.00;;
2940;SDS011;1480;51.456;6.670;2023-07-20T15:11:42;1.50;;;0.70;;
2940;SDS011;1480;51.456;6.670;2023-07-20T15:14:09;1.70;;;1.00;;
2940;SDS011;1480;51.456;6.670;2023-07-20T15:16:36;1.40;;;0.70;;
2940;SDS011;1480;51.456;6.670;2023-07-20T15:19:04;1.57;;;0.93;;